Time;durP1;ratioP1;P1;durP2;ratioP2;P2;SDS_P1;SDS_P2;PMS_P1;PMS_P2;Temp;Humidity;BMP_temperature;BMP_pressure;BME280_temperature;BME280_humidity;BME280_pressure;Samples;Min_cycle;Max_cycle;Signal;HPM_P1;HPM_P2
2023/06/24 00:00:55;;;;;;;6.63;4.43;;;;;;;;;;5074669;28;20176;-73
2023/06/24 00:03:20;;;;;;;5.37;4.77;;;;;;;;;;5074570;28;20177;-73
2023/06/24 00:05:49;;;;;;;5.50;4.77;;;;;;;;;;5066627;28;20221;-73
2023/06/24 00:08:19;;;;;;;6.17;4.73;;;;;;;;;;5095676;28;20180;-73
2023/06/24 00:10:45;;;;;;;5.87;5.37;;;;;;;;;;5069312;28;20176;-73
2023/06/24 00:13:10;;;;;;;5.90;5.30;;;;;;;;;;5071530;28;20181;-73
2023/06/24 00:15:35;;;;;;;5.30;4.80;;;;;;;;;;5091369;28;20181;-73
2023/06/24 00:18:05;;;;;;;5.33;4.83;;;;;;;;;;5077829;28;20184;-73
2023/06/24 00:20:30;;;;;;;5.20;4.70;;;;;;;;;;5086090;28;20188;-73
2023/06/24 00:22:56;;;;;;;5.73;5.17;;;;;;;;;;5091832;28;20284;-73
2023/06/24 00:25:21;;;;;;;5.20;4.70;;;;;;;;;;5069717;28;20227;-73
2023/06/24 00:27:46;;;;;;;5.60;4.83;;;;;;;;;;5088311;28;20176;-73
2023/06/24 00:30:11;;;;;;;8.10;5.40;;;;;;;;;;5077202;28;20179;-73
2023/06/24 00:32:37;;;;;;;5.37;4.87;;;;;;;;;;5069417;28;20180;-73
2023/06/24 00:35:02;;;;;;;5.87;5.30;;;;;;;;;;5083479;28;20215;-73
2023/06/24 00:37:27;;;;;;;5.67;5.17;;;;;;;;;;5091852;28;20213;-73
2023/06/24 00:39:53;;;;;;;5.83;5.33;;;;;;;;;;5078366;28;20171;-73
2023/06/24 00:42:18;;;;;;;5.67;5.00;;;;;;;;;;5072526;28;20186;-73
2023/06/24 00:44:43;;;;;;;6.40;4.53;;;;;;;;;;5083697;28;20202;-73
2023/06/24 00:47:09;;;;;;;5.53;5.03;;;;;;;;;;5073596;28;20209;-73
2023/06/24 00:49:35;;;;;;;6.47;5.87;;;;;;;;;;5095053;28;20183;-73
2023/06/24 00:52:01;;;;;;;6.83;5.17;;;;;;;;;;5069308;28;20175;-73
2023/06/24 00:54:30;;;;;;;5.37;4.87;;;;;;;;;;5071429;28;20183;-73
2023/06/24 00:56:56;;;;;;;5.77;5.27;;;;;;;;;;5061334;28;20186;-73
2023/06/24 00:59:21;;;;;;;5.83;5.23;;;;;;;;;;5057273;28;20185;-73
2023/06/24 01:01:46;;;;;;;5.70;4.50;;;;;;;;;;5053446;28;20278;-73
2023/06/24 01:04:12;;;;;;;6.07;5.33;;;;;;;;;;5065781;28;20178;-73
2023/06/24 01:06:43;;;;;;;5.27;4.77;;;;;;;;;;5074778;28;20178;-73
2023/06/24 01:09:08;;;;;;;8.37;5.33;;;;;;;;;;5073579;28;20186;-73
2023/06/24 01:11:33;;;;;;;6.10;5.50;;;;;;;;;;5087242;28;20189;-73
2023/06/24 01:13:58;;;;;;;6.03;5.47;;;;;;;;;;5071094;28;20197;-73
2023/06/24 01:16:28;;;;;;;6.70;5.40;;;;;;;;;;5081610;28;20183;-73
2023/06/24 01:18:58;;;;;;;5.50;5.00;;;;;;;;;;5043858;28;20186;-73
2023/06/24 01:21:42;;;;;;;5.37;4.87;;;;;;;;;;5069203;28;20191;-73
2023/06/24 01:24:26;;;;;;;6.07;5.20;;;;;;;;;;5066668;28;20399;-73
2023/06/24 01:26:51;;;;;;;5.93;5.33;;;;;;;;;;5079891;28;20170;-73
2023/06/24 01:29:34;;;;;;;5.80;5.30;;;;;;;;;;5045873;28;20170;-73
2023/06/24 01:32:06;;;;;;;5.37;4.87;;;;;;;;;;5066331;28;20181;-74
2023/06/24 01:34:36;;;;;;;5.70;5.07;;;;;;;;;;5088710;28;20198;-73
2023/06/24 01:37:07;;;;;;;7.07;5.83;;;;;;;;;;5071372;28;20181;-73
2023/06/24 01:39:35;;;;;;;6.70;5.90;;;;;;;;;;5087620;28;20198;-73
2023/06/24 01:42:05;;;;;;;5.63;5.13;;;;;;;;;;5067762;28;20322;-73
2023/06/24 01:44:31;;;;;;;5.47;4.97;;;;;;;;;;5089877;28;20198;-73
2023/06/24 01:46:58;;;;;;;6.20;5.60;;;;;;;;;;5086930;28;20171;-73
2023/06/24 01:49:23;;;;;;;6.50;5.57;;;;;;;;;;5084939;28;20179;-73
2023/06/24 01:51:49;;;;;;;5.93;5.40;;;;;;;;;;5077716;28;20165;-73
2023/06/24 01:54:15;;;;;;;6.50;5.57;;;;;;;;;;5089357;28;20181;-73
2023/06/24 01:56:42;;;;;;;6.20;5.60;;;;;;;;;;5088508;28;20169;-73
2023/06/24 01:59:08;;;;;;;6.70;6.00;;;;;;;;;;5064960;28;20188;-73
2023/06/24 02:01:35;;;;;;;5.60;5.10;;;;;;;;;;5083074;28;20174;-73
2023/06/24 02:04:00;;;;;;;6.57;5.90;;;;;;;;;;5058005;28;20190;-73
2023/06/24 02:06:26;;;;;;;5.30;4.80;;;;;;;;;;5071298;28;20206;-74
2023/06/24 02:08:53;;;;;;;6.03;5.40;;;;;;;;;;5041378;28;20183;-73
2023/06/24 02:11:19;;;;;;;6.13;5.50;;;;;;;;;;5090489;28;20174;-74
2023/06/24 02:13:44;;;;;;;6.37;5.33;;;;;;;;;;5066914;28;20172;-73
2023/06/24 02:16:10;;;;;;;6.23;5.63;;;;;;;;;;5080286;28;20205;-73
2023/06/24 02:18:36;;;;;;;5.47;4.97;;;;;;;;;;5045163;28;20180;-73
2023/06/24 02:21:03;;;;;;;14.20;5.70;;;;;;;;;;5074262;28;20181;-73
2023/06/24 02:23:29;;;;;;;5.63;5.07;;;;;;;;;;5069057;28;20192;-73
2023/06/24 02:26:27;;;;;;;6.30;5.27;;;;;;;;;;5100994;27;20559;-74
2023/06/24 02:28:53;;;;;;;5.43;4.87;;;;;;;;;;5072016;28;20178;-74
2023/06/24 02:31:18;;;;;;;5.27;4.80;;;;;;;;;;5079295;28;20205;-74
2023/06/24 02:33:43;;;;;;;5.50;5.00;;;;;;;;;;5059187;28;20272;-74
2023/06/24 02:36:09;;;;;;;5.67;5.13;;;;;;;;;;5065350;28;20177;-74
2023/06/24 02:38:35;;;;;;;4.87;4.40;;;;;;;;;;5060940;28;20251;-74
2023/06/24 02:41:04;;;;;;;5.43;4.93;;;;;;;;;;5066715;28;20186;-73
2023/06/24 02:43:29;;;;;;;5.00;4.60;;;;;;;;;;5064226;28;20189;-74
2023/06/24 02:45:54;;;;;;;5.37;4.87;;;;;;;;;;5065630;28;20196;-73
2023/06/24 02:48:20;;;;;;;5.07;4.60;;;;;;;;;;5065752;28;20231;-74
2023/06/24 02:50:46;;;;;;;6.40;5.70;;;;;;;;;;5064722;28;20178;-74
2023/06/24 02:53:12;;;;;;;6.67;5.40;;;;;;;;;;5054937;28;20180;-74
2023/06/24 02:55:38;;;;;;;5.77;5.27;;;;;;;;;;5055894;28;20189;-74
2023/06/24 02:58:07;;;;;;;5.80;5.30;;;;;;;;;;5054327;28;20181;-74
2023/06/24 03:00:33;;;;;;;5.60;4.83;;;;;;;;;;5064375;28;20245;-74
2023/06/24 03:03:00;;;;;;;5.73;4.63;;;;;;;;;;5062475;28;20272;-73
2023/06/24 03:05:25;;;;;;;6.43;4.87;;;;;;;;;;5054062;28;20299;-74
2023/06/24 03:07:50;;;;;;;5.43;4.93;;;;;;;;;;5058801;28;20272;-73
2023/06/24 03:10:15;;;;;;;5.20;4.80;;;;;;;;;;5060532;28;20189;-74
2023/06/24 03:12:40;;;;;;;5.87;5.37;;;;;;;;;;5065448;28;20181;-74
2023/06/24 03:15:06;;;;;;;5.47;5.07;;;;;;;;;;5058409;28;20188;-73
2023/06/24 03:17:31;;;;;;;5.20;4.70;;;;;;;;;;5064732;28;20187;-74
2023/06/24 03:19:56;;;;;;;6.00;5.20;;;;;;;;;;5067001;28;20189;-74
2023/06/24 03:22:22;;;;;;;5.60;5.07;;;;;;;;;;5066739;28;20193;-74
2023/06/24 03:24:47;;;;;;;7.57;5.67;;;;;;;;;;5062755;28;20233;-74
2023/06/24 03:27:12;;;;;;;7.67;5.53;;;;;;;;;;5053789;28;20173;-74
2023/06/24 03:29:37;;;;;;;5.30;4.80;;;;;;;;;;5054847;28;20168;-74
2023/06/24 03:32:03;;;;;;;5.33;4.83;;;;;;;;;;5062701;28;20238;-73
2023/06/24 03:34:28;;;;;;;6.13;5.50;;;;;;;;;;5061675;28;20209;-74
2023/06/24 03:36:54;;;;;;;4.93;4.47;;;;;;;;;;5047604;28;20244;-74
2023/06/24 03:39:20;;;;;;;6.90;5.63;;;;;;;;;;5051680;28;20190;-74
2023/06/24 03:41:45;;;;;;;7.03;5.67;;;;;;;;;;5043317;28;20187;-74
2023/06/24 03:44:10;;;;;;;5.77;5.20;;;;;;;;;;5047140;28;20188;-73
2023/06/24 03:46:35;;;;;;;5.93;5.33;;;;;;;;;;5047872;28;20264;-74
2023/06/24 03:49:00;;;;;;;5.27;4.77;;;;;;;;;;5049001;28;20193;-74
2023/06/24 03:51:26;;;;;;;7.37;5.87;;;;;;;;;;5049200;28;20235;-74
2023/06/24 03:53:51;;;;;;;5.30;4.80;;;;;;;;;;5042002;28;20243;-74
2023/06/24 03:56:17;;;;;;;6.07;4.77;;;;;;;;;;5048245;28;20192;-74
2023/06/24 03:58:42;;;;;;;5.63;5.13;;;;;;;;;;5046970;28;20189;-74
2023/06/24 04:01:09;;;;;;;5.10;4.60;;;;;;;;;;5047049;28;20181;-73
2023/06/24 04:03:34;;;;;;;7.53;5.13;;;;;;;;;;5050475;28;20201;-74
2023/06/24 04:06:01;;;;;;;6.67;6.07;;;;;;;;;;5044459;28;20204;-73
2023/06/24 04:08:29;;;;;;;5.47;4.97;;;;;;;;;;5063119;28;20184;-73
2023/06/24 04:10:54;;;;;;;6.33;5.40;;;;;;;;;;5041198;28;20175;-73
2023/06/24 04:13:19;;;;;;;5.57;5.07;;;;;;;;;;5043482;28;20209;-73
2023/06/24 04:15:44;;;;;;;4.80;4.40;;;;;;;;;;5048351;28;20183;-73
2023/06/24 04:18:10;;;;;;;5.83;5.20;;;;;;;;;;5049113;28;20193;-73
2023/06/24 04:20:35;;;;;;;4.73;4.33;;;;;;;;;;5044814;28;20200;-73
2023/06/24 04:23:01;;;;;;;5.20;4.70;;;;;;;;;;5044533;28;20191;-74
2023/06/24 04:25:26;;;;;;;5.63;5.07;;;;;;;;;;5042401;28;20307;-73
2023/06/24 04:27:51;;;;;;;5.13;4.70;;;;;;;;;;5038358;28;20182;-73
2023/06/24 04:30:16;;;;;;;5.23;4.50;;;;;;;;;;5041391;28;20177;-73
2023/06/24 04:32:41;;;;;;;6.73;5.33;;;;;;;;;;5044198;28;20176;-74
2023/06/24 04:35:07;;;;;;;5.17;4.67;;;;;;;;;;5049155;28;20184;-74
2023/06/24 04:37:32;;;;;;;5.30;4.80;;;;;;;;;;5059374;28;20276;-73
2023/06/24 04:39:57;;;;;;;6.47;5.23;;;;;;;;;;5043005;28;20173;-73
2023/06/24 04:42:23;;;;;;;5.50;5.00;;;;;;;;;;5045053;28;20182;-73
2023/06/24 04:44:50;;;;;;;15.67;6.50;;;;;;;;;;5051196;28;20213;-73
2023/06/24 04:47:17;;;;;;;5.80;5.27;;;;;;;;;;5046726;28;20181;-73
2023/06/24 04:49:42;;;;;;;8.23;5.40;;;;;;;;;;5039478;28;20221;-73
2023/06/24 04:52:07;;;;;;;5.07;4.67;;;;;;;;;;5039578;28;20196;-73
2023/06/24 04:54:33;;;;;;;5.77;4.87;;;;;;;;;;5048824;28;20178;-73
2023/06/24 04:56:58;;;;;;;6.23;5.40;;;;;;;;;;5041432;28;20215;-73
2023/06/24 04:59:23;;;;;;;5.23;4.83;;;;;;;;;;5048780;28;20250;-73
2023/06/24 05:01:48;;;;;;;6.20;5.27;;;;;;;;;;5035060;28;20186;-73
2023/06/24 05:04:13;;;;;;;6.13;5.63;;;;;;;;;;5039794;28;20185;-74
2023/06/24 05:06:39;;;;;;;6.63;6.03;;;;;;;;;;5042283;28;20209;-73
2023/06/24 05:09:04;;;;;;;8.17;5.83;;;;;;;;;;5047476;28;20214;-73
2023/06/24 05:11:29;;;;;;;5.87;5.30;;;;;;;;;;5041060;28;20178;-74
2023/06/24 05:13:54;;;;;;;6.30;5.70;;;;;;;;;;5049498;28;20312;-73
2023/06/24 05:16:20;;;;;;;6.33;4.70;;;;;;;;;;5048972;28;20190;-74
2023/06/24 05:18:45;;;;;;;4.83;4.43;;;;;;;;;;5043776;28;20190;-74
2023/06/24 05:21:10;;;;;;;5.63;5.13;;;;;;;;;;5048056;28;20182;-74
2023/06/24 05:23:36;;;;;;;6.50;5.30;;;;;;;;;;5039123;28;20205;-73
2023/06/24 05:26:01;;;;;;;6.07;5.23;;;;;;;;;;5037296;28;20273;-73
2023/06/24 05:28:26;;;;;;;9.07;5.17;;;;;;;;;;5042133;28;20261;-73
2023/06/24 05:30:51;;;;;;;5.47;5.07;;;;;;;;;;5040897;28;20199;-73
2023/06/24 05:33:16;;;;;;;5.33;4.83;;;;;;;;;;5039995;28;20189;-73
2023/06/24 05:35:44;;;;;;;5.67;5.27;;;;;;;;;;5039680;28;20189;-73
2023/06/24 05:38:10;;;;;;;7.10;5.70;;;;;;;;;;5047836;28;20205;-73
2023/06/24 05:40:35;;;;;;;6.73;4.97;;;;;;;;;;5045189;28;20227;-73
2023/06/24 05:43:00;;;;;;;5.87;5.10;;;;;;;;;;5043231;28;20276;-73
2023/06/24 05:45:26;;;;;;;5.70;5.20;;;;;;;;;;5043074;28;20269;-73
2023/06/24 05:47:51;;;;;;;8.47;5.50;;;;;;;;;;5046805;28;20187;-73
2023/06/24 05:50:16;;;;;;;12.53;6.20;;;;;;;;;;5050460;28;20179;-74
2023/06/24 05:52:41;;;;;;;10.50;7.27;;;;;;;;;;5063054;28;20189;-73
2023/06/24 05:55:07;;;;;;;13.07;6.80;;;;;;;;;;5048507;28;20180;-73
2023/06/24 05:57:32;;;;;;;20.00;7.40;;;;;;;;;;5041281;28;20185;-73
2023/06/24 05:59:57;;;;;;;7.40;5.50;;;;;;;;;;5045417;28;20194;-73
2023/06/24 06:02:23;;;;;;;6.37;5.60;;;;;;;;;;5044771;28;20268;-73
2023/06/24 06:04:49;;;;;;;10.37;6.67;;;;;;;;;;5045433;28;20202;-74
2023/06/24 06:07:14;;;;;;;10.30;5.07;;;;;;;;;;5041015;28;20179;-73
2023/06/24 06:09:40;;;;;;;8.20;5.87;;;;;;;;;;5037059;28;20171;-73
2023/06/24 06:12:06;;;;;;;7.93;5.73;;;;;;;;;;5043153;28;20226;-74
2023/06/24 06:14:31;;;;;;;5.57;5.07;;;;;;;;;;5040614;28;20195;-73
2023/06/24 06:16:56;;;;;;;12.17;5.50;;;;;;;;;;5032641;28;20206;-74
2023/06/24 06:19:21;;;;;;;5.87;5.10;;;;;;;;;;5046315;28;20181;-74
2023/06/24 06:21:46;;;;;;;8.50;5.40;;;;;;;;;;5058029;28;20189;-73
2023/06/24 06:24:12;;;;;;;7.13;5.30;;;;;;;;;;5044441;28;20258;-74
2023/06/24 06:26:41;;;;;;;5.13;4.63;;;;;;;;;;5044579;28;20182;-74
2023/06/24 06:29:06;;;;;;;5.60;4.90;;;;;;;;;;5049230;28;20178;-73
2023/06/24 06:31:32;;;;;;;6.97;5.10;;;;;;;;;;5042336;28;20174;-74
2023/06/24 06:33:57;;;;;;;6.37;4.67;;;;;;;;;;5042112;28;20197;-73
2023/06/24 06:36:22;;;;;;;10.40;5.13;;;;;;;;;;5045349;28;20269;-74
2023/06/24 06:38:47;;;;;;;5.97;5.13;;;;;;;;;;5045243;28;20181;-73
2023/06/24 06:41:12;;;;;;;6.47;5.33;;;;;;;;;;5036772;28;20198;-73
2023/06/24 06:43:38;;;;;;;20.67;6.43;;;;;;;;;;5039787;28;20177;-73
2023/06/24 06:46:03;;;;;;;34.00;7.53;;;;;;;;;;5042853;28;20205;-74
2023/06/24 06:48:28;;;;;;;25.77;6.67;;;;;;;;;;5048108;28;20240;-74
2023/06/24 06:50:54;;;;;;;5.53;5.03;;;;;;;;;;5044070;28;20206;-73
2023/06/24 06:53:19;;;;;;;39.03;8.67;;;;;;;;;;5041849;28;20191;-74
2023/06/24 06:55:44;;;;;;;7.57;5.03;;;;;;;;;;5039410;28;20282;-74
2023/06/24 06:58:09;;;;;;;16.83;6.50;;;;;;;;;;5049039;28;20189;-73
2023/06/24 07:00:35;;;;;;;7.03;5.33;;;;;;;;;;5039170;28;20185;-73
2023/06/24 07:03:00;;;;;;;5.10;4.60;;;;;;;;;;5051793;28;20233;-74
2023/06/24 07:05:25;;;;;;;9.17;4.63;;;;;;;;;;5039451;28;20235;-73
2023/06/24 07:07:50;;;;;;;6.33;4.73;;;;;;;;;;5053860;28;20283;-73
2023/06/24 07:10:17;;;;;;;8.43;5.07;;;;;;;;;;5041953;28;20172;-73
2023/06/24 07:12:42;;;;;;;7.40;4.63;;;;;;;;;;5039149;28;20184;-74
2023/06/24 07:15:07;;;;;;;9.27;5.73;;;;;;;;;;5061154;28;20177;-73
2023/06/24 07:17:33;;;;;;;8.87;6.30;;;;;;;;;;5062705;28;20195;-74
2023/06/24 07:19:58;;;;;;;104.83;15.33;;;;;;;;;;5046648;28;20180;-73
2023/06/24 07:22:23;;;;;;;7.57;5.13;;;;;;;;;;5047582;28;20201;-74
2023/06/24 07:24:48;;;;;;;5.40;4.90;;;;;;;;;;5040071;28;20251;-74
2023/06/24 07:27:14;;;;;;;5.23;4.73;;;;;;;;;;5049169;28;20177;-73
2023/06/24 07:29:39;;;;;;;5.37;4.87;;;;;;;;;;5050145;28;20173;-74
2023/06/24 07:32:04;;;;;;;7.40;4.70;;;;;;;;;;5042761;28;20176;-73
2023/06/24 07:34:30;;;;;;;13.13;6.07;;;;;;;;;;5051856;28;20197;-74
2023/06/24 07:36:55;;;;;;;5.03;4.60;;;;;;;;;;5046679;28;20248;-73
2023/06/24 07:39:21;;;;;;;5.40;4.83;;;;;;;;;;5049404;28;20183;-74
2023/06/24 07:41:46;;;;;;;5.73;4.80;;;;;;;;;;5040825;28;20198;-73
2023/06/24 07:44:11;;;;;;;5.43;4.93;;;;;;;;;;5053328;28;20226;-74
2023/06/24 07:46:37;;;;;;;4.77;4.37;;;;;;;;;;5047517;28;20186;-74
2023/06/24 07:49:02;;;;;;;4.83;4.43;;;;;;;;;;5050627;28;20175;-74
2023/06/24 07:51:27;;;;;;;5.07;4.57;;;;;;;;;;5048712;28;20187;-74
2023/06/24 07:53:52;;;;;;;4.70;4.30;;;;;;;;;;5040432;28;20188;-74
2023/06/24 07:56:18;;;;;;;5.03;4.50;;;;;;;;;;5041594;28;20209;-73
2023/06/24 07:58:43;;;;;;;4.90;4.50;;;;;;;;;;5052831;28;20188;-74
2023/06/24 08:01:08;;;;;;;6.27;5.17;;;;;;;;;;5045944;28;20180;-74
2023/06/24 08:03:34;;;;;;;4.67;4.20;;;;;;;;;;5044539;28;20192;-73
2023/06/24 08:05:59;;;;;;;5.30;3.93;;;;;;;;;;5043921;28;20343;-74
2023/06/24 08:08:24;;;;;;;4.60;4.20;;;;;;;;;;5046931;28;20174;-74
2023/06/24 08:10:49;;;;;;;8.77;5.10;;;;;;;;;;5052321;28;20178;-74
2023/06/24 08:13:14;;;;;;;30.23;7.17;;;;;;;;;;5042911;28;20231;-74
2023/06/24 08:15:40;;;;;;;4.57;4.17;;;;;;;;;;5039430;28;20214;-74
2023/06/24 08:18:05;;;;;;;4.17;3.83;;;;;;;;;;5040716;28;20193;-74
2023/06/24 08:20:30;;;;;;;4.60;4.10;;;;;;;;;;5044397;28;20231;-74
2023/06/24 08:22:56;;;;;;;3.87;3.40;;;;;;;;;;5048936;28;20201;-74
2023/06/24 08:25:21;;;;;;;4.27;3.87;;;;;;;;;;5044445;28;20233;-74
2023/06/24 08:27:46;;;;;;;3.40;3.10;;;;;;;;;;5055196;28;20176;-74
2023/06/24 08:30:12;;;;;;;4.80;3.40;;;;;;;;;;5046878;28;20204;-74
2023/06/24 08:32:38;;;;;;;4.27;3.23;;;;;;;;;;5041282;28;20225;-74
2023/06/24 08:35:03;;;;;;;3.70;2.90;;;;;;;;;;5048749;28;20222;-74
2023/06/24 08:37:28;;;;;;;4.03;3.57;;;;;;;;;;5049482;28;20236;-74
2023/06/24 08:39:54;;;;;;;4.73;3.40;;;;;;;;;;5046399;28;20188;-74
2023/06/24 08:42:19;;;;;;;3.73;3.43;;;;;;;;;;5047798;28;20193;-74
2023/06/24 08:44:44;;;;;;;3.43;3.13;;;;;;;;;;5044804;28;20212;-74
2023/06/24 08:47:09;;;;;;;3.25;2.97;;;;;;;;;;5047888;28;20205;-74
2023/06/24 08:49:38;;;;;;;3.90;3.53;;;;;;;;;;5042782;28;20311;-74
2023/06/24 08:52:13;;;;;;;3.30;3.00;;;;;;;;;;5043080;28;20178;-74
2023/06/24 08:54:40;;;;;;;5.15;3.90;;;;;;;;;;5046577;28;20183;-74
2023/06/24 08:57:06;;;;;;;5.00;3.58;;;;;;;;;;5041354;28;20182;-74
2023/06/24 08:59:36;;;;;;;4.93;3.50;;;;;;;;;;5044379;28;20190;-74
2023/06/24 09:02:02;;;;;;;4.53;3.70;;;;;;;;;;5043116;28;20187;-74
2023/06/24 09:04:27;;;;;;;4.07;3.67;;;;;;;;;;5043637;28;20236;-74
2023/06/24 09:06:52;;;;;;;5.30;3.50;;;;;;;;;;5064649;28;20209;-74
2023/06/24 09:09:19;;;;;;;3.72;3.35;;;;;;;;;;5048553;28;20186;-74
2023/06/24 09:11:50;;;;;;;13.07;4.20;;;;;;;;;;5043526;28;20185;-74
2023/06/24 09:14:18;;;;;;;4.85;4.45;;;;;;;;;;5039252;28;20175;-74
2023/06/24 09:17:04;;;;;;;4.82;4.40;;;;;;;;;;5052059;28;20186;-74
2023/06/24 09:19:30;;;;;;;5.07;4.15;;;;;;;;;;5047744;28;20280;-74
2023/06/24 09:22:01;;;;;;;4.20;3.53;;;;;;;;;;5045445;28;20294;-74
2023/06/24 09:24:28;;;;;;;4.38;4.00;;;;;;;;;;5038778;28;20273;-74
2023/06/24 09:26:56;;;;;;;4.60;4.03;;;;;;;;;;5040291;28;20189;-74
2023/06/24 09:29:27;;;;;;;11.45;6.20;;;;;;;;;;5044176;28;20179;-74
2023/06/24 09:31:53;;;;;;;4.53;4.13;;;;;;;;;;5042633;28;20194;-74
2023/06/24 09:34:18;;;;;;;6.65;4.97;;;;;;;;;;5046510;28;20182;-74
2023/06/24 09:36:44;;;;;;;4.65;4.25;;;;;;;;;;5046312;28;20178;-74
2023/06/24 09:39:10;;;;;;;4.38;3.97;;;;;;;;;;5059078;28;20197;-74
2023/06/24 09:41:36;;;;;;;4.20;3.90;;;;;;;;;;5040683;28;20238;-74
2023/06/24 09:44:01;;;;;;;5.07;4.57;;;;;;;;;;5039890;28;20178;-74
2023/06/24 09:46:27;;;;;;;4.68;4.28;;;;;;;;;;5052819;28;20226;-74
2023/06/24 09:48:53;;;;;;;5.72;4.20;;;;;;;;;;5047189;28;20185;-74
2023/06/24 09:51:19;;;;;;;7.57;4.32;;;;;;;;;;5038128;28;20178;-74
2023/06/24 09:53:44;;;;;;;4.30;3.88;;;;;;;;;;5031710;28;20179;-74
2023/06/24 09:56:09;;;;;;;4.32;3.92;;;;;;;;;;5041232;28;20185;-74
2023/06/24 09:58:36;;;;;;;4.32;3.50;;;;;;;;;;5045110;28;20192;-74
2023/06/24 10:01:04;;;;;;;18.25;5.82;;;;;;;;;;5043737;28;20189;-74
2023/06/24 10:03:32;;;;;;;3.95;3.55;;;;;;;;;;5058049;28;20181;-74
2023/06/24 10:05:57;;;;;;;4.88;3.30;;;;;;;;;;5043634;28;20252;-74
2023/06/24 10:08:23;;;;;;;3.70;3.38;;;;;;;;;;5061691;28;20181;-74
2023/06/24 10:10:48;;;;;;;4.03;3.63;;;;;;;;;;5046182;28;20193;-74
2023/06/24 10:13:13;;;;;;;4.00;3.60;;;;;;;;;;5039814;28;20174;-74
2023/06/24 10:15:38;;;;;;;3.58;3.28;;;;;;;;;;5044472;28;20261;-74
2023/06/24 10:18:24;;;;;;;4.10;3.60;;;;;;;;;;5045512;28;20225;-74
2023/06/24 10:20:49;;;;;;;4.45;3.17;;;;;;;;;;5042273;28;20190;-74
2023/06/24 10:23:14;;;;;;;3.85;3.42;;;;;;;;;;5040060;28;20202;-74
2023/06/24 10:25:39;;;;;;;4.20;3.15;;;;;;;;;;5045137;28;20254;-74
2023/06/24 10:28:05;;;;;;;9.90;4.35;;;;;;;;;;5047390;28;20177;-74
2023/06/24 10:30:31;;;;;;;3.85;3.55;;;;;;;;;;5041283;28;20367;-74
2023/06/24 10:32:57;;;;;;;4.03;3.30;;;;;;;;;;5044733;28;20175;-74
2023/06/24 10:35:27;;;;;;;3.45;3.15;;;;;;;;;;5045586;28;20193;-74
2023/06/24 10:37:56;;;;;;;5.22;3.80;;;;;;;;;;5051912;28;20231;-74
2023/06/24 10:40:38;;;;;;;4.93;3.53;;;;;;;;;;5038905;28;20179;-74
2023/06/24 10:43:23;;;;;;;3.58;3.28;;;;;;;;;;5044988;28;20184;-74
2023/06/24 10:45:49;;;;;;;4.07;3.60;;;;;;;;;;5047846;28;20208;-74
2023/06/24 10:48:15;;;;;;;3.65;3.35;;;;;;;;;;5044094;28;20243;-74
2023/06/24 10:50:40;;;;;;;3.45;3.15;;;;;;;;;;5048894;28;20241;-74
2023/06/24 10:53:07;;;;;;;3.90;3.60;;;;;;;;;;5044127;28;20178;-74
2023/06/24 10:55:32;;;;;;;4.43;3.72;;;;;;;;;;5055814;28;20182;-74
2023/06/24 10:58:06;;;;;;;3.67;3.35;;;;;;;;;;5052080;28;20300;-74
2023/06/24 11:00:32;;;;;;;4.20;3.90;;;;;;;;;;5046566;28;20218;-74
2023/06/24 11:02:57;;;;;;;3.88;3.38;;;;;;;;;;5049631;28;20231;-74
2023/06/24 11:05:22;;;;;;;4.32;3.17;;;;;;;;;;5048726;28;20208;-74
2023/06/24 11:07:47;;;;;;;3.80;3.30;;;;;;;;;;5048945;28;20186;-74
2023/06/24 11:10:14;;;;;;;3.80;3.50;;;;;;;;;;5045252;28;20166;-74
2023/06/24 11:12:40;;;;;;;3.53;3.22;;;;;;;;;;5045860;28;20261;-75
2023/06/24 11:15:09;;;;;;;4.93;3.42;;;;;;;;;;5044288;28;20277;-74
2023/06/24 11:17:35;;;;;;;6.40;3.85;;;;;;;;;;5053335;28;20216;-74
2023/06/24 11:20:00;;;;;;;7.20;3.28;;;;;;;;;;5047570;28;20182;-74
2023/06/24 11:22:26;;;;;;;5.18;3.80;;;;;;;;;;5041020;28;20202;-74
2023/06/24 11:24:51;;;;;;;3.53;3.22;;;;;;;;;;5051626;28;20261;-74
2023/06/24 11:27:23;;;;;;;16.95;5.05;;;;;;;;;;5050767;28;20182;-74
2023/06/24 11:29:51;;;;;;;3.88;3.58;;;;;;;;;;5049790;28;20208;-74
2023/06/24 11:32:17;;;;;;;3.40;3.15;;;;;;;;;;5040522;28;20175;-74
2023/06/24 11:34:42;;;;;;;5.88;3.60;;;;;;;;;;5055375;28;20287;-74
2023/06/24 11:37:15;;;;;;;3.75;3.40;;;;;;;;;;5043038;28;20265;-74
2023/06/24 11:39:40;;;;;;;3.42;3.13;;;;;;;;;;5047820;28;20204;-74
2023/06/24 11:42:06;;;;;;;3.67;3.38;;;;;;;;;;5050496;28;20178;-74
2023/06/24 11:44:32;;;;;;;3.25;2.95;;;;;;;;;;5049024;28;20208;-74
2023/06/24 11:47:07;;;;;;;3.67;3.38;;;;;;;;;;5044197;28;20182;-74
2023/06/24 11:49:47;;;;;;;3.47;3.17;;;;;;;;;;5043686;28;20176;-74
2023/06/24 11:52:12;;;;;;;5.95;3.22;;;;;;;;;;5041925;28;20170;-74
2023/06/24 11:54:40;;;;;;;7.28;3.75;;;;;;;;;;5048349;28;20264;-74
2023/06/24 11:57:05;;;;;;;4.43;3.75;;;;;;;;;;5048493;28;20179;-74
2023/06/24 11:59:31;;;;;;;3.60;3.33;;;;;;;;;;5066248;28;20193;-74
2023/06/24 12:01:59;;;;;;;3.72;3.42;;;;;;;;;;5079075;28;20174;-74
2023/06/24 12:04:28;;;;;;;5.43;3.35;;;;;;;;;;5048811;28;20162;-74
2023/06/24 12:06:54;;;;;;;3.85;3.25;;;;;;;;;;5050616;28;20183;-74
2023/06/24 12:09:19;;;;;;;3.55;3.25;;;;;;;;;;5046335;28;20300;-74
2023/06/24 12:11:44;;;;;;;3.53;3.22;;;;;;;;;;5065665;28;20167;-74
2023/06/24 12:14:10;;;;;;;4.72;3.30;;;;;;;;;;5062727;28;20188;-74
2023/06/24 12:16:35;;;;;;;4.43;3.10;;;;;;;;;;5042887;28;20190;-74
2023/06/24 12:19:00;;;;;;;4.05;3.03;;;;;;;;;;5048429;28;20253;-74
2023/06/24 12:21:25;;;;;;;3.30;3.00;;;;;;;;;;5043712;28;20186;-74
2023/06/24 12:23:50;;;;;;;5.07;3.58;;;;;;;;;;5050152;28;20285;-74
2023/06/24 12:26:16;;;;;;;3.58;3.30;;;;;;;;;;5037142;28;20295;-74
2023/06/24 12:28:41;;;;;;;4.63;3.30;;;;;;;;;;5043801;28;20190;-74
2023/06/24 12:34:09;;;;;;;3.67;3.38;;;;;;;;;;5043427;28;20188;-74
2023/06/24 12:36:34;;;;;;;4.32;3.25;;;;;;;;;;5040458;28;20270;-74
2023/06/24 12:38:59;;;;;;;9.40;3.78;;;;;;;;;;5044036;28;20189;-74
2023/06/24 12:41:26;;;;;;;5.07;3.90;;;;;;;;;;5047183;28;20174;-74
2023/06/24 12:43:52;;;;;;;3.92;3.63;;;;;;;;;;5047399;28;20186;-74
2023/06/24 12:46:17;;;;;;;3.72;3.35;;;;;;;;;;5042762;28;20206;-74
2023/06/24 12:48:43;;;;;;;4.35;3.40;;;;;;;;;;5041281;28;20186;-74
2023/06/24 12:51:09;;;;;;;3.42;3.13;;;;;;;;;;5063227;28;20240;-74
2023/06/24 12:53:34;;;;;;;3.95;3.55;;;;;;;;;;5039471;28;20175;-74
2023/06/24 12:55:59;;;;;;;3.60;3.30;;;;;;;;;;5042422;28;20185;-74
2023/06/24 12:58:26;;;;;;;5.03;3.80;;;;;;;;;;5044970;28;20183;-74
2023/06/24 13:00:51;;;;;;;3.40;3.10;;;;;;;;;;5049269;28;20193;-74
2023/06/24 13:03:16;;;;;;;3.75;3.47;;;;;;;;;;5048204;28;20209;-74
2023/06/24 13:05:41;;;;;;;3.42;2.88;;;;;;;;;;5037936;28;20296;-74
2023/06/24 13:08:06;;;;;;;3.53;3.22;;;;;;;;;;5046683;28;20182;-74
2023/06/24 13:10:32;;;;;;;4.43;3.13;;;;;;;;;;5044872;28;20186;-74
2023/06/24 13:12:57;;;;;;;3.50;3.20;;;;;;;;;;5048191;28;20173;-74
2023/06/24 13:15:23;;;;;;;10.70;3.33;;;;;;;;;;5049594;28;20186;-74
2023/06/24 13:17:49;;;;;;;5.80;3.70;;;;;;;;;;5047100;28;20185;-74
2023/06/24 13:20:14;;;;;;;3.58;3.13;;;;;;;;;;5041092;28;20174;-74
2023/06/24 13:22:39;;;;;;;4.20;3.10;;;;;;;;;;5064207;28;20216;-74
2023/06/24 13:25:05;;;;;;;3.83;3.33;;;;;;;;;;5066201;28;20276;-74
2023/06/24 13:27:30;;;;;;;3.00;2.67;;;;;;;;;;5044316;28;20455;-74
2023/06/24 13:29:55;;;;;;;3.03;2.83;;;;;;;;;;5045393;28;20202;-74
2023/06/24 13:32:20;;;;;;;4.85;3.42;;;;;;;;;;5046716;28;20183;-74
2023/06/24 13:34:46;;;;;;;3.78;3.13;;;;;;;;;;5038844;28;20187;-74
2023/06/24 13:37:11;;;;;;;3.30;3.00;;;;;;;;;;5057371;28;20178;-74
2023/06/24 13:39:36;;;;;;;5.50;2.88;;;;;;;;;;5050170;28;20220;-75
2023/06/24 13:42:01;;;;;;;3.33;3.03;;;;;;;;;;5062346;28;20304;-74
2023/06/24 13:44:26;;;;;;;3.22;2.92;;;;;;;;;;5046863;28;20208;-74
2023/06/24 13:46:53;;;;;;;3.63;3.08;;;;;;;;;;5048157;28;20166;-74
2023/06/24 13:49:18;;;;;;;5.50;3.30;;;;;;;;;;5050241;28;20173;-74
2023/06/24 13:51:43;;;;;;;3.72;3.42;;;;;;;;;;5041920;28;20170;-74
2023/06/24 13:54:08;;;;;;;3.67;3.22;;;;;;;;;;5050284;28;20231;-74
2023/06/24 13:56:34;;;;;;;3.80;3.10;;;;;;;;;;5049559;28;20242;-74
2023/06/24 13:59:02;;;;;;;3.50;3.20;;;;;;;;;;5046342;28;20181;-74
2023/06/24 14:01:31;;;;;;;3.55;3.22;;;;;;;;;;5043871;28;20189;-74
2023/06/24 14:03:56;;;;;;;3.45;3.15;;;;;;;;;;5047477;28;20186;-74
2023/06/24 14:06:22;;;;;;;3.60;2.90;;;;;;;;;;5043516;28;20217;-74
2023/06/24 14:08:48;;;;;;;3.63;3.10;;;;;;;;;;5042939;28;20171;-74
2023/06/24 14:11:13;;;;;;;2.70;2.50;;;;;;;;;;5047546;28;20178;-74
2023/06/24 14:13:39;;;;;;;3.80;3.03;;;;;;;;;;5046604;28;20228;-75
2023/06/24 14:16:05;;;;;;;34.92;7.03;;;;;;;;;;5045216;28;20261;-74
2023/06/24 14:18:31;;;;;;;3.00;2.80;;;;;;;;;;5044661;28;20183;-74
2023/06/24 14:20:57;;;;;;;3.15;2.92;;;;;;;;;;5049365;28;20182;-74
2023/06/24 14:23:22;;;;;;;3.00;2.80;;;;;;;;;;5043663;28;20198;-74
2023/06/24 14:25:48;;;;;;;3.15;2.95;;;;;;;;;;5041990;28;20229;-74
2023/06/24 14:28:13;;;;;;;3.13;2.85;;;;;;;;;;5044375;28;20171;-74
2023/06/24 14:30:38;;;;;;;3.13;2.92;;;;;;;;;;5047984;28;20177;-74
2023/06/24 14:33:04;;;;;;;3.47;3.15;;;;;;;;;;5044879;28;20265;-74
2023/06/24 14:35:29;;;;;;;3.88;3.20;;;;;;;;;;5044839;28;20186;-74
2023/06/24 14:37:54;;;;;;;2.85;2.65;;;;;;;;;;5047564;28;20178;-74
2023/06/24 14:40:19;;;;;;;3.28;2.97;;;;;;;;;;5039800;28;20185;-74